createdAt,value
2019-01-21T00:00:33.005Z,80.96
2019-01-21T00:03:01.647Z,81.61
2019-01-21T00:05:30.105Z,81.22
2019-01-21T00:07:58.553Z,80.98
2019-01-21T00:10:27.072Z,80.39
2019-01-21T00:12:55.771Z,80.07
2019-01-21T00:15:24.373Z,79.54
2019-01-21T00:17:52.812Z,80.11
2019-01-21T00:20:21.342Z,80.07
2019-01-21T00:22:49.768Z,79.65
2019-01-21T00:25:18.293Z,79.54
2019-01-21T00:27:46.796Z,79.31
2019-01-21T00:30:15.370Z,79.11
2019-01-21T00:32:43.877Z,79.22
2019-01-21T00:35:12.511Z,79.41
2019-01-21T00:37:40.942Z,79.21
2019-01-21T00:40:13.773Z,79.01
2019-01-21T00:42:42.351Z,79.16
2019-01-21T00:45:11.264Z,79.59
2019-01-21T00:47:39.762Z,79.95
2019-01-21T00:50:10.747Z,79.55
2019-01-21T00:52:39.185Z,79.40
2019-01-21T00:55:10.090Z,79.30
2019-01-21T00:57:38.690Z,79.68
2019-01-21T01:00:16.275Z,79.48
2019-01-21T01:02:45.312Z,79.16
2019-01-21T01:05:14.722Z,78.67
2019-01-21T01:07:43.300Z,78.60
2019-01-21T01:10:13.122Z,78.73
2019-01-21T01:12:41.765Z,78.59
2019-01-21T01:15:12.645Z,79.23
2019-01-21T01:17:41.362Z,80.42
2019-01-21T01:20:15.658Z,81.19
2019-01-21T01:22:44.165Z,81.54
2019-01-21T01:25:13.005Z,81.29
2019-01-21T01:27:41.781Z,80.57
2019-01-21T01:30:13.096Z,79.83
2019-01-21T01:32:41.543Z,79.37
2019-01-21T01:35:11.339Z,79.04
2019-01-21T01:37:39.858Z,79.91
2019-01-21T01:40:11.939Z,80.23
2019-01-21T01:42:40.380Z,79.78
2019-01-21T01:45:12.077Z,79.32
2019-01-21T01:47:44.730Z,79.86
2019-01-21T01:50:11.134Z,79.28
2019-01-21T01:52:39.888Z,79.65
2019-01-21T01:55:10.248Z,79.52
2019-01-21T01:57:38.715Z,79.01
2019-01-21T02:00:10.454Z,78.54
2019-01-21T02:02:39.003Z,78.69
2019-01-21T02:05:07.875Z,78.48
2019-01-21T02:07:36.334Z,78.13
2019-01-21T02:10:07.962Z,78.12
2019-01-21T02:12:36.487Z,78.32
2019-01-21T02:15:08.580Z,78.53
2019-01-21T02:17:37.358Z,78.04
2019-01-21T02:20:12.119Z,77.95
2019-01-21T02:22:42.994Z,78.27
2019-01-21T02:25:12.153Z,77.98
2019-01-21T02:28:01.771Z,77.30
2019-01-21T02:30:33.352Z,78.12
2019-01-21T02:33:07.435Z,78.83
2019-01-21T02:35:38.940Z,78.43
2019-01-21T02:38:16.384Z,78.09
2019-01-21T02:40:57.065Z,77.94
2019-01-21T02:43:59.536Z,78.16
2019-01-21T02:47:07.117Z,78.75
2019-01-21T02:49:55.314Z,79.47
2019-01-21T02:52:36.075Z,78.42
2019-01-21T02:55:22.652Z,78.02
2019-01-21T02:58:12.096Z,77.64
2019-01-21T03:01:04.752Z,77.21
2019-01-21T03:03:36.244Z,76.88
2019-01-21T03:06:16.478Z,76.71
2019-01-21T03:08:59.812Z,77.21
2019-01-21T03:11:43.423Z,77.81
2019-01-21T03:14:35.559Z,77.41
2019-01-21T03:17:09.626Z,77.10
2019-01-21T03:19:53.051Z,76.83
2019-01-21T03:22:27.564Z,76.24
2019-01-21T03:25:05.060Z,76.38
2019-01-21T03:27:45.976Z,77.09
2019-01-21T03:30:38.746Z,77.24
2019-01-21T03:33:31.582Z,76.86
2019-01-21T03:36:09.019Z,76.30
2019-01-21T03:38:48.692Z,76.21
2019-01-21T03:41:34.746Z,76.08
2019-01-21T03:44:14.876Z,75.88
2019-01-21T03:46:54.996Z,75.77
2019-01-21T03:49:35.653Z,75.57
2019-01-21T03:52:23.827Z,75.40
2019-01-21T03:54:52.930Z,74.73
2019-01-21T03:57:24.410Z,75.09
2019-01-21T04:00:14.289Z,75.01
2019-01-21T04:02:51.579Z,75.19
2019-01-21T04:05:23.091Z,75.23
2019-01-21T04:07:57.083Z,75.67
2019-01-21T04:11:00.563Z,75.80
2019-01-21T04:13:54.341Z,76.02
2019-01-21T04:16:40.620Z,76.89
2019-01-21T04:19:30.449Z,77.13
2019-01-21T04:22:22.879Z,76.67
2019-01-21T04:24:54.381Z,76.21
2019-01-21T04:27:28.543Z,76.76
2019-01-21T04:30:22.905Z,76.59
2019-01-21T04:33:10.740Z,76.46
2019-01-21T04:35:47.785Z,76.35
2019-01-21T04:38:25.150Z,75.97
2019-01-21T04:41:14.900Z,75.57
2019-01-21T04:44:07.325Z,75.32
2019-01-21T04:46:54.041Z,75.56
2019-01-21T04:49:34.892Z,75.21
2019-01-21T04:52:22.939Z,75.18
2019-01-21T04:55:17.594Z,75.07
2019-01-21T04:57:57.927Z,75.26
2019-01-21T05:00:49.256Z,75.23
2019-01-21T05:03:26.453Z,75.44
2019-01-21T05:06:14.615Z,75.68
2019-01-21T05:09:10.317Z,75.96
2019-01-21T05:12:13.694Z,75.59
2019-01-21T05:15:17.025Z,75.38
2019-01-21T05:17:54.542Z,75.55
2019-01-21T05:20:43.941Z,75.55
2019-01-21T05:23:15.828Z,75.41
2019-01-21T05:26:05.202Z,75.33
2019-01-21T05:28:39.270Z,75.12
2019-01-21T05:31:11.070Z,75.09
2019-01-21T05:33:42.580Z,75.04
2019-01-21T05:36:29.224Z,74.86
2019-01-21T05:39:00.747Z,74.31
2019-01-21T05:41:48.667Z,73.66
2019-01-21T05:44:22.959Z,73.80
2019-01-21T05:47:06.432Z,73.78
2019-01-21T05:50:10.024Z,74.04
2019-01-21T05:53:02.575Z,74.14
2019-01-21T05:55:50.417Z,73.77
2019-01-21T05:58:47.469Z,73.89
2019-01-21T06:01:39.922Z,74.02
2019-01-21T06:04:17.241Z,73.88
2019-01-21T06:06:54.542Z,74.58
2019-01-21T06:09:28.874Z,74.57
2019-01-21T06:12:06.336Z,73.99
2019-01-21T06:15:01.734Z,74.12
2019-01-21T06:17:52.629Z,75.04
2019-01-21T06:20:49.676Z,75.73
2019-01-21T06:23:21.179Z,76.05
2019-01-21T06:26:01.848Z,75.45
2019-01-21T06:28:57.009Z,75.50
2019-01-21T06:31:46.504Z,75.38
2019-01-21T06:34:41.970Z,75.47
2019-01-21T06:37:16.174Z,75.03
2019-01-21T06:39:47.686Z,75.11
2019-01-21T06:42:30.991Z,75.18
2019-01-21T06:45:05.446Z,75.32
2019-01-21T06:47:49.168Z,75.41
2019-01-21T06:50:26.584Z,75.70
2019-01-21T06:53:06.990Z,76.37
2019-01-21T06:56:11.744Z,76.55
2019-01-21T06:59:04.519Z,76.39
2019-01-21T07:01:44.756Z,76.41
2019-01-21T07:04:37.163Z,77.01
2019-01-21T07:07:34.176Z,77.11
2019-01-21T07:10:17.499Z,77.77
2019-01-21T07:12:57.963Z,77.51
2019-01-21T07:15:41.290Z,77.98
2019-01-21T07:18:26.106Z,77.64
2019-01-21T07:20:57.859Z,77.55
2019-01-21T07:23:44.387Z,77.36
2019-01-21T07:26:15.886Z,77.19
2019-01-21T07:28:50.184Z,77.28
2019-01-21T07:31:30.832Z,77.13
2019-01-21T07:34:04.872Z,77.37
2019-01-21T07:36:36.407Z,77.29
2019-01-21T07:39:10.858Z,77.06
2019-01-21T07:41:51.364Z,77.42
2019-01-21T07:44:28.884Z,77.42
2019-01-21T07:47:06.567Z,77.11
2019-01-21T07:49:44.098Z,76.84
2019-01-21T07:52:18.210Z,76.53
2019-01-21T07:54:55.461Z,76.21
2019-01-21T07:57:38.989Z,76.02
2019-01-21T08:00:16.116Z,75.85
2019-01-21T08:03:08.708Z,76.00
2019-01-21T08:05:40.224Z,76.14
2019-01-21T08:08:32.595Z,75.72
2019-01-21T08:11:24.961Z,75.71
2019-01-21T08:14:05.506Z,75.46
2019-01-21T08:16:55.021Z,75.11
2019-01-21T08:19:41.388Z,75.05
2019-01-21T08:22:13.019Z,74.95
2019-01-21T08:25:08.861Z,74.87
2019-01-21T08:27:40.370Z,74.82
2019-01-21T08:30:11.876Z,74.84
2019-01-21T08:33:16.387Z,74.72
2019-01-21T08:35:50.613Z,74.60
2019-01-21T08:38:30.191Z,74.71
2019-01-21T08:41:04.402Z,74.75
2019-01-21T08:43:41.643Z,74.76
2019-01-21T08:46:37.031Z,74.76
2019-01-21T08:49:30.756Z,74.32
2019-01-21T08:52:23.744Z,74.49
2019-01-21T08:54:58.116Z,74.73
2019-01-21T08:57:49.067Z,74.78
2019-01-21T09:00:32.584Z,74.92
2019-01-21T09:03:23.504Z,74.96
2019-01-21T09:05:57.881Z,74.80
2019-01-21T09:08:37.882Z,74.89
2019-01-21T09:11:12.651Z,74.78
2019-01-21T09:14:00.866Z,74.40
2019-01-21T09:17:02.772Z,74.57
2019-01-21T09:19:50.452Z,74.38
2019-01-21T09:22:27.751Z,73.96
2019-01-21T09:25:07.996Z,73.40
2019-01-21T09:27:51.609Z,73.60
2019-01-21T09:30:51.853Z,73.56
2019-01-21T09:33:26.461Z,73.45
2019-01-21T09:36:09.945Z,72.93
2019-01-21T09:38:50.126Z,72.66
2019-01-21T09:41:24.507Z,73.00
2019-01-21T09:44:02.206Z,73.19
2019-01-21T09:46:46.949Z,72.88
2019-01-21T09:49:14.294Z,72.44
2019-01-21T09:51:44.765Z,71.95
2019-01-21T09:54:13.390Z,71.87
2019-01-21T09:56:42.365Z,71.16
2019-01-21T09:59:11.259Z,71.25
2019-01-21T10:01:40.247Z,70.87
2019-01-21T10:04:09.032Z,70.40
2019-01-21T10:06:40.537Z,70.95
2019-01-21T10:09:15.009Z,70.88
2019-01-21T10:11:46.608Z,70.26
2019-01-21T10:14:20.952Z,70.62
2019-01-21T10:17:13.113Z,70.28
2019-01-21T10:20:00.894Z,70.80
2019-01-21T10:22:35.315Z,70.18
2019-01-21T10:25:18.950Z,70.09
2019-01-21T10:28:10.262Z,70.27
2019-01-21T10:31:35.529Z,69.54
2019-01-21T10:34:39.972Z,69.45
2019-01-21T10:37:23.284Z,69.47
2019-01-21T10:40:08.831Z,68.84
2019-01-21T10:43:04.198Z,68.72
2019-01-21T10:45:43.913Z,68.75
2019-01-21T10:48:21.278Z,67.84
2019-01-21T10:51:16.138Z,68.27
2019-01-21T10:54:02.497Z,67.87
2019-01-21T10:56:37.069Z,67.74
2019-01-21T10:59:23.135Z,67.54
2019-01-21T11:02:06.597Z,67.72
2019-01-21T11:04:38.104Z,67.30
2019-01-21T11:07:43.196Z,67.18
2019-01-21T11:10:29.756Z,66.80
2019-01-21T11:13:16.408Z,66.51
2019-01-21T11:15:50.786Z,66.41
2019-01-21T11:18:25.011Z,65.40
2019-01-21T11:21:17.671Z,65.76
2019-01-21T11:24:03.841Z,65.68
2019-01-21T11:26:57.864Z,65.25
2019-01-21T11:29:35.185Z,64.90
2019-01-21T11:32:26.193Z,64.31
2019-01-21T11:35:26.636Z,64.34
2019-01-21T11:38:17.170Z,64.45
2019-01-21T11:40:54.537Z,64.68
2019-01-21T11:43:34.949Z,64.28
2019-01-21T11:46:15.231Z,63.87
2019-01-21T11:48:58.451Z,63.14
2019-01-21T11:51:36.328Z,62.21
2019-01-21T11:54:25.983Z,62.97
2019-01-21T11:57:15.233Z,61.86
2019-01-21T11:59:52.644Z,61.76
2019-01-21T12:02:35.611Z,61.06
2019-01-21T12:05:08.523Z,60.17
2019-01-21T12:08:02.399Z,60.67
2019-01-21T12:10:55.157Z,60.03
2019-01-21T12:13:29.298Z,59.59
2019-01-21T12:16:15.753Z,58.18
2019-01-21T12:19:02.384Z,58.50
2019-01-21T12:21:39.537Z,58.46
2019-01-21T12:24:11.013Z,58.09
2019-01-21T12:26:48.360Z,58.26
2019-01-21T12:29:25.844Z,58.31
2019-01-21T12:32:23.024Z,58.23
2019-01-21T12:35:03.164Z,57.97
2019-01-21T12:37:46.875Z,58.37
2019-01-21T12:40:33.501Z,58.01
2019-01-21T12:43:07.791Z,57.43
2019-01-21T12:46:01.892Z,57.27
2019-01-21T12:48:33.407Z,57.29
2019-01-21T12:51:19.861Z,56.81
2019-01-21T12:54:06.373Z,57.41
2019-01-21T12:56:49.813Z,58.04
2019-01-21T12:59:30.357Z,57.92
2019-01-21T13:02:04.359Z,56.61
2019-01-21T13:04:35.891Z,56.91
2019-01-21T13:07:13.092Z,56.31
2019-01-21T13:10:05.822Z,56.25
2019-01-21T13:13:04.639Z,55.61
2019-01-21T13:15:45.017Z,55.95
2019-01-21T13:18:40.474Z,55.54
2019-01-21T13:21:36.264Z,55.94
2019-01-21T13:24:07.734Z,54.29
2019-01-21T13:27:00.519Z,54.62
2019-01-21T13:29:34.826Z,54.59
2019-01-21T13:32:18.076Z,54.33
2019-01-21T13:35:01.667Z,54.95
2019-01-21T13:37:45.068Z,54.92
2019-01-21T13:40:48.291Z,55.36
2019-01-21T13:43:36.268Z,55.29
2019-01-21T13:46:41.182Z,55.82
2019-01-21T13:49:27.773Z,56.53
2019-01-21T13:52:28.450Z,56.63
2019-01-21T13:55:27.214Z,57.00
2019-01-21T13:58:16.719Z,56.99
2019-01-21T14:01:21.107Z,57.45
2019-01-21T14:04:19.758Z,57.63
2019-01-21T14:06:57.220Z,58.34
2019-01-21T14:09:34.508Z,58.58
2019-01-21T14:12:25.428Z,58.95
2019-01-21T14:15:00.492Z,59.06
2019-01-21T14:17:44.285Z,59.39
2019-01-21T14:20:27.489Z,59.68
2019-01-21T14:23:01.566Z,60.18
2019-01-21T14:25:38.939Z,60.09
2019-01-21T14:28:16.164Z,60.13
2019-01-21T14:30:53.640Z,60.40
2019-01-21T14:33:43.046Z,60.43
2019-01-21T14:36:14.524Z,60.55
2019-01-21T14:38:46.053Z,60.59
2019-01-21T14:41:17.514Z,60.52
2019-01-21T14:44:14.604Z,60.77
2019-01-21T14:46:46.083Z,60.59
2019-01-21T14:49:26.585Z,60.23
2019-01-21T14:51:58.069Z,60.14
2019-01-21T14:54:38.670Z,60.35
2019-01-21T14:57:29.815Z,60.85
2019-01-21T15:00:13.125Z,60.92
2019-01-21T15:03:02.548Z,60.95
2019-01-21T15:05:48.987Z,61.04
2019-01-21T15:08:20.491Z,61.08
2019-01-21T15:11:07.422Z,61.48
2019-01-21T15:13:44.411Z,61.61
2019-01-21T15:16:19.202Z,61.49
2019-01-21T15:18:53.732Z,61.83
2019-01-21T15:21:47.579Z,61.82
2019-01-21T15:24:25.034Z,62.07
2019-01-21T15:27:05.203Z,61.82
2019-01-21T15:29:52.024Z,61.59
2019-01-21T15:32:38.742Z,61.55
2019-01-21T15:35:31.508Z,61.60
2019-01-21T15:38:12.110Z,61.78
2019-01-21T15:40:52.313Z,61.87
2019-01-21T15:43:35.637Z,62.16
2019-01-21T15:46:22.212Z,62.65
2019-01-21T15:48:53.697Z,62.76
2019-01-21T15:51:30.714Z,63.14
2019-01-21T15:54:22.759Z,63.06
2019-01-21T15:57:10.822Z,63.46
2019-01-21T15:59:54.988Z,63.30
2019-01-21T16:02:35.260Z,63.26
2019-01-21T16:05:18.561Z,63.28
2019-01-21T16:07:50.039Z,63.04
2019-01-21T16:10:33.627Z,63.35
2019-01-21T16:13:10.855Z,63.36
2019-01-21T16:15:48.082Z,63.27
2019-01-21T16:18:28.642Z,63.63
2019-01-21T16:21:31.971Z,63.73
2019-01-21T16:24:27.627Z,64.14
2019-01-21T16:27:01.913Z,64.15
2019-01-21T16:29:42.457Z,64.09
2019-01-21T16:32:10.915Z,63.98
2019-01-21T16:34:57.550Z,64.00
2019-01-21T16:37:35.888Z,64.11
2019-01-21T16:40:15.950Z,64.03
2019-01-21T16:42:44.428Z,64.38
2019-01-21T16:45:12.936Z,64.47
2019-01-21T16:47:41.458Z,64.40
2019-01-21T16:50:10.065Z,64.33
2019-01-21T16:52:38.521Z,64.59
2019-01-21T16:55:08.542Z,64.44
2019-01-21T16:57:36.967Z,64.41
2019-01-21T17:00:11.720Z,64.44
2019-01-21T17:02:40.160Z,64.51
2019-01-21T17:05:11.663Z,64.94
2019-01-21T17:07:40.111Z,64.96
2019-01-21T17:10:11.605Z,64.59
2019-01-21T17:12:40.104Z,64.65
2019-01-21T17:15:13.466Z,64.60
2019-01-21T17:17:41.966Z,64.71
2019-01-21T17:20:16.402Z,64.62
2019-01-21T17:22:44.843Z,64.38
2019-01-21T17:25:13.546Z,64.31
2019-01-21T17:27:42.042Z,64.19
2019-01-21T17:30:16.414Z,64.27
2019-01-21T17:32:45.034Z,64.45
2019-01-21T17:35:14.931Z,64.43
2019-01-21T17:37:43.555Z,64.33
2019-01-21T17:40:15.616Z,64.29
2019-01-21T17:42:44.038Z,64.23
2019-01-21T17:45:15.938Z,64.28
2019-01-21T17:47:44.660Z,64.29
2019-01-21T17:50:15.745Z,64.09
2019-01-21T17:52:44.257Z,63.96
2019-01-21T17:55:13.651Z,63.95
2019-01-21T17:57:42.087Z,63.94
2019-01-21T18:00:14.951Z,63.73
2019-01-21T18:02:43.419Z,63.56
2019-01-21T18:05:13.719Z,63.51
2019-01-21T18:07:42.151Z,63.58
2019-01-21T18:10:13.429Z,63.59
2019-01-21T18:12:41.880Z,63.58
2019-01-21T18:15:12.385Z,63.61
2019-01-21T18:17:40.887Z,63.62
2019-01-21T18:20:15.059Z,63.66
2019-01-21T18:22:43.593Z,63.50
2019-01-21T18:25:12.972Z,63.57
2019-01-21T18:27:41.515Z,63.65
2019-01-21T18:30:16.348Z,63.50
2019-01-21T18:32:44.812Z,63.33
2019-01-21T18:35:14.008Z,63.37
2019-01-21T18:37:42.703Z,63.53
2019-01-21T18:40:14.125Z,64.18
2019-01-21T18:42:42.791Z,64.33
2019-01-21T18:45:14.323Z,63.99
2019-01-21T18:47:42.921Z,63.83
2019-01-21T18:50:12.145Z,64.34
2019-01-21T18:52:40.644Z,64.22
2019-01-21T18:55:10.260Z,64.03
2019-01-21T18:57:38.792Z,63.89
2019-01-21T19:00:19.288Z,63.83
2019-01-21T19:02:48.052Z,63.65
2019-01-21T19:05:16.670Z,63.81
2019-01-21T19:07:45.178Z,63.55
2019-01-21T19:10:15.863Z,63.61
2019-01-21T19:12:45.254Z,63.67
2019-01-21T19:15:22.729Z,63.54
2019-01-21T19:17:51.321Z,63.62
2019-01-21T19:20:19.807Z,63.70
2019-01-21T19:22:48.352Z,63.68
2019-01-21T19:25:17.112Z,63.88
2019-01-21T19:27:45.787Z,63.81
2019-01-21T19:30:23.085Z,63.86
2019-01-21T19:32:51.589Z,63.84
2019-01-21T19:35:23.320Z,63.82
2019-01-21T19:37:51.754Z,63.75
2019-01-21T19:40:22.132Z,63.76
2019-01-21T19:42:50.623Z,63.61
2019-01-21T19:45:19.606Z,63.77
2019-01-21T19:47:48.141Z,64.05
2019-01-21T19:50:19.474Z,64.03
2019-01-21T19:52:48.241Z,64.05
2019-01-21T19:55:37.965Z,63.83
2019-01-21T19:58:07.430Z,64.00
2019-01-21T20:00:36.151Z,64.18
2019-01-21T20:03:04.838Z,64.08
2019-01-21T20:05:33.403Z,64.03
2019-01-21T20:08:01.930Z,63.84
2019-01-21T20:10:30.545Z,63.80
2019-01-21T20:12:59.055Z,63.63
2019-01-21T20:15:27.668Z,63.61
2019-01-21T20:17:56.153Z,63.64
2019-01-21T20:20:31.018Z,63.80
2019-01-21T20:22:59.569Z,63.68
2019-01-21T20:25:28.310Z,63.67
2019-01-21T20:27:56.735Z,63.63
2019-01-21T20:30:25.759Z,63.71
2019-01-21T20:32:54.270Z,63.71
2019-01-21T20:35:23.255Z,63.78
2019-01-21T20:37:51.795Z,63.43
2019-01-21T20:40:23.025Z,63.54
2019-01-21T20:42:51.624Z,63.39
2019-01-21T20:45:20.299Z,63.42
2019-01-21T20:47:48.761Z,63.31
2019-01-21T20:50:22.731Z,63.29
2019-01-21T20:52:51.177Z,63.23
2019-01-21T20:55:20.158Z,63.30
2019-01-21T20:57:48.717Z,63.20
2019-01-21T21:00:22.740Z,62.92
2019-01-21T21:02:51.675Z,62.94
2019-01-21T21:05:20.462Z,62.71
2019-01-21T21:07:48.922Z,62.62
2019-01-21T21:10:17.729Z,62.45
2019-01-21T21:12:46.301Z,62.69
2019-01-21T21:15:20.212Z,62.48
2019-01-21T21:17:48.659Z,62.31
2019-01-21T21:20:17.244Z,62.09
2019-01-21T21:22:45.711Z,62.24
2019-01-21T21:25:17.195Z,62.28
2019-01-21T21:27:45.664Z,62.51
2019-01-21T21:30:17.239Z,62.44
2019-01-21T21:32:45.762Z,62.65
2019-01-21T21:35:14.250Z,62.88
2019-01-21T21:37:42.808Z,63.75
2019-01-21T21:40:16.341Z,63.08
2019-01-21T21:42:45.110Z,62.99
2019-01-21T21:45:15.672Z,63.18
2019-01-21T21:47:44.332Z,63.55
2019-01-21T21:50:18.060Z,62.92
2019-01-21T21:52:46.622Z,62.67
2019-01-21T21:55:15.204Z,62.90
2019-01-21T21:57:43.936Z,62.93
2019-01-21T22:00:21.359Z,62.53
2019-01-21T22:02:49.913Z,62.29
2019-01-21T22:05:18.998Z,62.25
2019-01-21T22:07:47.472Z,62.22
2019-01-21T22:10:20.301Z,62.49
2019-01-21T22:12:48.881Z,63.03
2019-01-21T22:15:19.689Z,63.65
2019-01-21T22:17:48.153Z,63.71
2019-01-21T22:20:18.524Z,63.36
2019-01-21T22:22:47.334Z,62.71
2019-01-21T22:25:16.176Z,62.64
2019-01-21T22:27:44.739Z,62.47
2019-01-21T22:30:21.755Z,62.22
2019-01-21T22:32:50.301Z,62.00
2019-01-21T22:35:18.813Z,62.22
2019-01-21T22:37:47.693Z,62.19
2019-01-21T22:40:21.011Z,62.38
2019-01-21T22:42:49.527Z,62.51
2019-01-21T22:45:19.305Z,62.68
2019-01-21T22:47:47.763Z,62.78
2019-01-21T22:50:18.275Z,62.88
2019-01-21T22:52:46.717Z,63.17
2019-01-21T22:55:16.204Z,63.06
2019-01-21T22:57:44.653Z,62.96
2019-01-21T23:00:19.228Z,62.93
2019-01-21T23:02:47.660Z,62.93
2019-01-21T23:05:16.345Z,62.74
2019-01-21T23:07:44.784Z,62.42
2019-01-21T23:10:13.291Z,62.46
2019-01-21T23:12:41.736Z,62.26
2019-01-21T23:15:10.995Z,62.21
2019-01-21T23:17:39.445Z,62.21
2019-01-21T23:20:10.429Z,62.13
2019-01-21T23:22:38.889Z,62.00
2019-01-21T23:25:08.221Z,61.79
2019-01-21T23:27:36.941Z,62.13
2019-01-21T23:30:14.687Z,62.03
2019-01-21T23:32:43.173Z,61.93
2019-01-21T23:35:11.891Z,62.05
2019-01-21T23:37:40.340Z,61.85
2019-01-21T23:40:11.106Z,62.02
2019-01-21T23:42:39.560Z,62.20
2019-01-21T23:45:09.753Z,62.20
2019-01-21T23:47:38.201Z,62.13
2019-01-21T23:50:09.711Z,61.94
2019-01-21T23:52:38.525Z,61.62
2019-01-21T23:55:09.546Z,61.74
2019-01-21T23:57:37.997Z,61.56
